createdAt,value
2018-11-21T00:00:17.479Z,18.23
2018-11-21T00:02:45.753Z,19.20
2018-11-21T00:05:14.161Z,19.43
2018-11-21T00:07:42.187Z,19.27
2018-11-21T00:10:11.969Z,19.77
2018-11-21T00:12:43.097Z,19.03
2018-11-21T00:15:11.609Z,19.30
2018-11-21T00:17:39.591Z,17.97
2018-11-21T00:20:09.546Z,18.77
2018-11-21T00:22:37.696Z,18.10
2018-11-21T00:25:05.776Z,18.00
2018-11-21T00:27:33.746Z,18.73
2018-11-21T00:30:01.728Z,17.40
2018-11-21T00:32:29.776Z,18.90
2018-11-21T00:34:57.829Z,18.50
2018-11-21T00:37:26.399Z,19.37
2018-11-21T00:39:54.534Z,18.00
2018-11-21T00:42:22.575Z,18.00
2018-11-21T00:44:50.549Z,17.23
2018-11-21T00:47:18.660Z,18.67
2018-11-21T00:49:47.009Z,18.30
2018-11-21T00:52:15.074Z,18.57
2018-11-21T00:54:43.126Z,18.33
2018-11-21T00:57:11.184Z,19.47
2018-11-21T00:59:39.268Z,17.33
2018-11-21T01:02:07.334Z,18.47
2018-11-21T01:04:35.302Z,18.73
2018-11-21T01:07:03.327Z,18.77
2018-11-21T01:09:31.382Z,18.73
2018-11-21T01:11:59.479Z,18.30
2018-11-21T01:14:27.929Z,18.97
2018-11-21T01:16:55.913Z,18.23
2018-11-21T01:19:24.159Z,18.23
2018-11-21T01:21:52.145Z,17.40
2018-11-21T01:24:20.258Z,18.10
2018-11-21T01:26:48.413Z,20.43
2018-11-21T01:29:16.439Z,19.40
2018-11-21T01:31:44.494Z,17.70
2018-11-21T01:34:12.510Z,19.80
2018-11-21T01:36:40.578Z,19.17
2018-11-21T01:39:09.838Z,18.57
2018-11-21T01:41:38.084Z,19.40
2018-11-21T01:44:06.702Z,18.53
2018-11-21T01:46:35.895Z,19.80
2018-11-21T01:49:04.295Z,19.40
2018-11-21T01:51:32.652Z,17.30
2018-11-21T01:54:00.707Z,19.47
2018-11-21T01:56:28.706Z,18.37
2018-11-21T01:58:56.817Z,18.17
2018-11-21T02:01:24.902Z,18.47
2018-11-21T02:03:52.968Z,18.83
2018-11-21T02:06:21.348Z,18.23
2018-11-21T02:08:49.327Z,19.50
2018-11-21T02:11:17.702Z,18.60
2018-11-21T02:13:45.751Z,19.43
2018-11-21T02:16:13.848Z,19.67
2018-11-21T02:18:41.842Z,20.03
2018-11-21T02:21:10.017Z,19.60
2018-11-21T02:23:38.094Z,18.77
2018-11-21T02:26:06.309Z,19.77
2018-11-21T02:28:34.327Z,17.87
2018-11-21T02:31:02.681Z,19.47
2018-11-21T02:33:30.710Z,18.87
2018-11-21T02:35:58.711Z,19.87
2018-11-21T02:38:26.810Z,20.13
2018-11-21T02:40:54.805Z,19.63
2018-11-21T02:43:22.903Z,20.37
2018-11-21T02:45:50.898Z,18.13
2018-11-21T02:48:19.310Z,19.60
2018-11-21T02:50:47.325Z,18.60
2018-11-21T02:53:15.337Z,20.00
2018-11-21T02:55:43.354Z,18.80
2018-11-21T02:58:11.402Z,18.33
2018-11-21T03:00:39.750Z,20.87
2018-11-21T03:03:07.856Z,20.40
2018-11-21T03:05:35.832Z,20.13
2018-11-21T03:08:04.016Z,20.00
2018-11-21T03:10:31.976Z,20.67
2018-11-21T03:13:00.226Z,19.13
2018-11-21T03:15:28.277Z,21.50
2018-11-21T03:17:56.250Z,19.63
2018-11-21T03:20:24.325Z,19.47
2018-11-21T03:22:52.345Z,18.93
2018-11-21T03:25:20.358Z,18.23
2018-11-21T03:27:48.422Z,18.87
2018-11-21T03:30:16.429Z,20.53
2018-11-21T03:32:44.470Z,21.23
2018-11-21T03:35:12.490Z,19.77
2018-11-21T03:37:40.484Z,20.23
2018-11-21T03:40:10.621Z,19.77
2018-11-21T03:42:38.997Z,20.13
2018-11-21T03:45:09.063Z,21.93
2018-11-21T03:47:37.107Z,19.33
2018-11-21T03:50:07.847Z,19.80
2018-11-21T03:52:36.385Z,20.23
2018-11-21T03:55:05.478Z,19.37
2018-11-21T03:57:33.538Z,20.83
2018-11-21T04:00:01.478Z,21.00
2018-11-21T04:02:29.503Z,20.20
2018-11-21T04:04:57.550Z,20.00
2018-11-21T04:07:25.574Z,19.83
2018-11-21T04:09:53.551Z,20.07
2018-11-21T04:12:21.625Z,21.47
2018-11-21T04:14:49.734Z,20.17
2018-11-21T04:17:17.947Z,20.00
2018-11-21T04:19:46.036Z,20.67
2018-11-21T04:22:14.032Z,22.30
2018-11-21T04:24:42.075Z,20.93
2018-11-21T04:27:10.060Z,19.40
2018-11-21T04:29:38.157Z,21.10
2018-11-21T04:32:06.108Z,19.37
2018-11-21T04:34:34.149Z,20.77
2018-11-21T04:37:02.202Z,20.03
2018-11-21T04:39:30.263Z,20.87
2018-11-21T04:41:58.363Z,20.57
2018-11-21T04:44:26.452Z,18.53
2018-11-21T04:46:54.390Z,20.20
2018-11-21T04:49:22.391Z,20.57
2018-11-21T04:51:50.448Z,21.93
2018-11-21T04:54:18.497Z,20.60
2018-11-21T04:56:46.536Z,21.73
2018-11-21T04:59:14.531Z,22.50
2018-11-21T05:01:42.565Z,19.97
2018-11-21T05:04:10.539Z,21.47
2018-11-21T05:06:39.101Z,19.57
2018-11-21T05:09:09.865Z,22.33
2018-11-21T05:11:38.223Z,22.03
2018-11-21T05:14:06.414Z,19.70
2018-11-21T05:16:34.785Z,22.10
2018-11-21T05:19:02.843Z,20.40
2018-11-21T05:21:30.843Z,22.33
2018-11-21T05:23:59.022Z,20.60
2018-11-21T05:26:27.077Z,22.07
2018-11-21T05:28:55.122Z,21.13
2018-11-21T05:31:23.495Z,22.23
2018-11-21T05:33:51.568Z,21.20
2018-11-21T05:36:19.529Z,21.57
2018-11-21T05:38:48.046Z,22.13
2018-11-21T05:41:16.007Z,24.07
2018-11-21T05:43:44.170Z,22.23
2018-11-21T05:46:12.495Z,22.10
2018-11-21T05:48:40.536Z,22.60
2018-11-21T05:51:08.532Z,22.30
2018-11-21T05:53:36.535Z,21.53
2018-11-21T05:56:04.669Z,22.77
2018-11-21T05:58:32.667Z,22.97
2018-11-21T06:01:00.717Z,22.53
2018-11-21T06:03:28.742Z,21.90
2018-11-21T06:05:56.787Z,23.33
2018-11-21T06:08:24.850Z,20.87
2018-11-21T06:10:52.886Z,21.37
2018-11-21T06:13:20.931Z,22.90
2018-11-21T06:15:49.501Z,28.67
2018-11-21T06:18:17.526Z,25.20
2018-11-21T06:20:45.600Z,24.90
2018-11-21T06:23:13.588Z,25.77
2018-11-21T06:25:41.608Z,29.43
2018-11-21T06:28:10.097Z,36.40
2018-11-21T06:30:38.076Z,28.60
2018-11-21T06:33:06.392Z,24.90
2018-11-21T06:35:34.393Z,36.07
2018-11-21T06:38:02.456Z,25.27
2018-11-21T06:40:30.426Z,35.77
2018-11-21T06:42:59.569Z,29.33
2018-11-21T06:45:39.606Z,31.77
2018-11-21T06:48:07.617Z,26.23
2018-11-21T06:50:35.942Z,30.43
2018-11-21T06:53:03.990Z,27.73
2018-11-21T06:55:32.090Z,31.90
2018-11-21T06:58:00.089Z,30.97
2018-11-21T07:00:28.098Z,28.67
2018-11-21T07:02:56.153Z,29.00
2018-11-21T07:05:24.143Z,30.53
2018-11-21T07:07:52.251Z,27.90
2018-11-21T07:10:20.274Z,25.00
2018-11-21T07:12:48.394Z,27.60
2018-11-21T07:15:16.468Z,30.97
2018-11-21T07:17:44.506Z,27.67
2018-11-21T07:20:13.133Z,25.43
2018-11-21T07:22:41.563Z,29.63
2018-11-21T07:25:18.084Z,24.30
2018-11-21T07:27:46.087Z,23.77
2018-11-21T07:30:15.278Z,22.07
2018-11-21T07:32:43.278Z,26.57
2018-11-21T07:35:17.545Z,24.63
2018-11-21T07:37:40.474Z,25.30
2018-11-21T07:40:16.197Z,25.43
2018-11-21T07:42:44.252Z,24.50
2018-11-21T07:45:13.854Z,24.20
2018-11-21T07:47:42.584Z,25.73
2018-11-21T07:50:13.711Z,24.33
2018-11-21T07:52:41.939Z,24.30
2018-11-21T07:55:10.803Z,25.97
2018-11-21T07:57:40.322Z,24.67
2018-11-21T08:01:22.173Z,22.60
2018-11-21T08:03:58.139Z,22.57
2018-11-21T08:06:33.599Z,24.13
2018-11-21T08:09:19.766Z,22.90
2018-11-21T08:12:19.518Z,23.37
2018-11-21T08:15:06.085Z,22.23
2018-11-21T08:18:12.368Z,22.13
2018-11-21T08:20:58.477Z,24.13
2018-11-21T08:23:55.388Z,19.50
2018-11-21T08:26:40.917Z,22.47
2018-11-21T08:29:09.081Z,24.07
2018-11-21T08:31:37.065Z,21.50
2018-11-21T08:34:05.198Z,21.40
2018-11-21T08:36:33.588Z,22.97
2018-11-21T08:39:02.525Z,22.03
2018-11-21T08:41:31.079Z,22.63
2018-11-21T08:43:59.148Z,21.83
2018-11-21T08:46:27.171Z,22.63
2018-11-21T08:48:55.253Z,21.87
2018-11-21T08:51:23.263Z,22.83
2018-11-21T08:53:51.411Z,21.83
2018-11-21T08:56:19.536Z,21.87
2018-11-21T08:58:47.588Z,20.83
2018-11-21T09:01:15.733Z,22.20
2018-11-21T09:03:43.736Z,20.37
2018-11-21T09:06:11.817Z,20.97
2018-11-21T09:08:39.886Z,23.37
2018-11-21T09:11:07.939Z,19.57
2018-11-21T09:13:35.911Z,22.10
2018-11-21T09:16:04.187Z,21.73
2018-11-21T09:18:32.768Z,21.40
2018-11-21T09:21:00.787Z,22.37
2018-11-21T09:23:28.820Z,22.70
2018-11-21T09:25:59.595Z,22.03
2018-11-21T09:28:27.638Z,23.23
2018-11-21T09:30:55.702Z,22.70
2018-11-21T09:33:23.747Z,22.17
2018-11-21T09:35:52.242Z,23.03
2018-11-21T09:38:20.452Z,21.77
2018-11-21T09:40:48.738Z,22.97
2018-11-21T09:43:16.941Z,22.77
2018-11-21T09:45:45.055Z,22.90
2018-11-21T09:48:13.158Z,21.23
2018-11-21T09:50:41.157Z,20.93
2018-11-21T09:53:09.482Z,22.23
2018-11-21T09:55:40.359Z,23.07
2018-11-21T09:58:05.616Z,21.93
2018-11-21T10:01:28.970Z,21.40
2018-11-21T10:04:00.915Z,21.30
2018-11-21T10:06:28.346Z,22.80
2018-11-21T10:08:58.094Z,23.50
2018-11-21T10:11:26.316Z,23.13
2018-11-21T10:13:54.655Z,23.37
2018-11-21T10:16:22.724Z,24.70
2018-11-21T10:18:52.776Z,22.80
2018-11-21T10:21:22.492Z,23.10
2018-11-21T10:23:50.771Z,23.33
2018-11-21T10:26:18.840Z,22.70
2018-11-21T10:28:47.614Z,23.03
2018-11-21T10:31:15.694Z,21.27
2018-11-21T10:33:43.760Z,22.67
2018-11-21T10:36:12.115Z,22.33
2018-11-21T10:38:40.151Z,23.57
2018-11-21T10:41:08.239Z,23.93
2018-11-21T10:43:37.013Z,23.50
2018-11-21T10:46:05.651Z,23.03
2018-11-21T10:48:33.791Z,22.00
2018-11-21T10:51:01.809Z,22.53
2018-11-21T10:53:29.968Z,22.57
2018-11-21T10:55:58.090Z,22.97
2018-11-21T10:58:26.128Z,23.53
2018-11-21T11:01:12.600Z,22.97
2018-11-21T11:03:46.436Z,22.90
2018-11-21T11:06:26.749Z,23.93
2018-11-21T11:09:23.662Z,23.90
2018-11-21T11:12:14.013Z,24.43
2018-11-21T11:15:07.381Z,22.33
2018-11-21T11:18:01.211Z,29.00
2018-11-21T11:20:47.541Z,26.57
2018-11-21T11:23:32.976Z,30.00
2018-11-21T11:26:39.031Z,30.47
2018-11-21T11:29:25.244Z,26.83
2018-11-21T11:32:24.990Z,24.70
2018-11-21T11:35:15.845Z,30.47
2018-11-21T11:38:01.919Z,30.20
2018-11-21T11:40:48.296Z,26.83
2018-11-21T11:43:34.507Z,22.60
2018-11-21T11:46:21.083Z,25.50
2018-11-21T11:49:08.501Z,27.30
2018-11-21T11:52:11.335Z,26.03
2018-11-21T11:55:14.474Z,27.20
2018-11-21T11:58:17.265Z,26.00
2018-11-21T12:01:05.306Z,28.97
2018-11-21T12:04:05.081Z,28.13
2018-11-21T12:06:55.723Z,28.97
2018-11-21T12:09:42.036Z,26.47
2018-11-21T12:12:30.267Z,24.60
2018-11-21T12:15:09.973Z,28.07
2018-11-21T12:17:56.952Z,27.57
2018-11-21T12:20:47.180Z,23.73
2018-11-21T12:23:34.697Z,24.40
2018-11-21T12:26:20.954Z,26.80
2018-11-21T12:29:17.533Z,25.77
2018-11-21T12:32:03.614Z,26.73
2018-11-21T12:34:49.842Z,23.70
2018-11-21T12:37:46.490Z,24.93
2018-11-21T12:40:42.853Z,28.90
2018-11-21T12:43:45.856Z,24.57
2018-11-21T12:46:33.467Z,25.37
2018-11-21T12:49:19.829Z,20.53
2018-11-21T12:52:25.525Z,24.23
2018-11-21T12:55:22.015Z,21.10
2018-11-21T12:58:05.917Z,25.27
2018-11-21T13:00:47.042Z,22.67
2018-11-21T13:03:33.213Z,22.27
2018-11-21T13:06:23.607Z,22.13
2018-11-21T13:09:09.886Z,22.80
2018-11-21T13:11:56.557Z,21.77
2018-11-21T13:14:49.881Z,20.50
2018-11-21T13:17:35.926Z,22.57
2018-11-21T13:20:41.743Z,22.40
2018-11-21T13:23:41.361Z,23.33
2018-11-21T13:26:31.738Z,21.93
2018-11-21T13:29:18.476Z,22.97
2018-11-21T13:32:06.023Z,22.43
2018-11-21T13:34:52.805Z,21.97
2018-11-21T13:37:39.557Z,26.73
2018-11-21T13:40:29.349Z,29.10
2018-11-21T13:43:19.774Z,34.83
2018-11-21T13:46:01.909Z,26.67
2018-11-21T13:48:58.444Z,29.97
2018-11-21T13:51:36.847Z,25.33
2018-11-21T13:54:23.922Z,25.67
2018-11-21T13:56:53.455Z,23.10
2018-11-21T13:59:20.453Z,39.30
2018-11-21T14:01:48.505Z,25.80
2018-11-21T14:04:16.515Z,33.60
2018-11-21T14:06:44.538Z,44.17
2018-11-21T14:09:18.030Z,31.87
2018-11-21T14:11:46.177Z,27.77
2018-11-21T14:14:14.209Z,24.13
2018-11-21T14:16:42.249Z,24.60
2018-11-21T14:19:10.612Z,25.23
2018-11-21T14:21:38.681Z,25.30
2018-11-21T14:24:06.774Z,23.43
2018-11-21T14:26:34.817Z,24.83
2018-11-21T14:29:02.903Z,25.63
2018-11-21T14:31:31.277Z,26.80
2018-11-21T14:33:59.403Z,23.33
2018-11-21T14:36:27.411Z,25.57
2018-11-21T14:38:55.438Z,23.70
2018-11-21T14:41:23.495Z,25.03
2018-11-21T14:43:51.509Z,22.37
2018-11-21T14:46:19.638Z,22.90
2018-11-21T14:48:47.621Z,24.13
2018-11-21T14:51:15.682Z,22.73
2018-11-21T14:53:43.661Z,24.17
2018-11-21T14:56:11.716Z,23.27
2018-11-21T14:58:40.206Z,22.13
2018-11-21T15:01:08.238Z,22.37
2018-11-21T15:03:36.220Z,23.07
2018-11-21T15:06:04.632Z,22.87
2018-11-21T15:08:32.653Z,22.07
2018-11-21T15:11:01.360Z,22.73
2018-11-21T15:13:29.353Z,22.07
2018-11-21T15:15:57.687Z,23.70
